Time;durP1;ratioP1;P1;durP2;ratioP2;P2;SDS_P1;SDS_P2;PMS_P1;PMS_P2;Temp;Humidity;BMP_temperature;BMP_pressure;BME280_temperature;BME280_humidity;BME280_pressure;Samples;Min_cycle;Max_cycle;Signal;HPM_P1;HPM_P2
2024/03/01 00:01:27;;;;;;;;;;;16.10;69.60;;;;;;5052729;28;20294;-72
2024/03/01 00:03:56;;;;;;;;;;;16.10;70.10;;;;;;5053240;28;19916;-72
2024/03/01 00:06:21;;;;;;;;;;;19.80;67.70;;;;;;5053033;28;20386;-73
2024/03/01 00:08:48;;;;;;;;;;;16.10;70.10;;;;;;5052510;28;19921;-72
2024/03/01 00:11:13;;;;;;;;;;;16.00;69.90;;;;;;5034762;28;20372;-72
2024/03/01 00:13:39;;;;;;;;;;;16.20;70.40;;;;;;5052618;28;19931;-72
2024/03/01 00:16:04;;;;;;;;;;;16.10;70.20;;;;;;5052949;28;20363;-72
2024/03/01 00:18:30;;;;;;;;;;;16.10;69.80;;;;;;5052635;28;19916;-72
2024/03/01 00:20:55;;;;;;;;;;;16.10;70.30;;;;;;5052573;28;19916;-72
2024/03/01 00:23:21;;;;;;;;;;;16.20;70.00;;;;;;5052564;28;19948;-72
2024/03/01 00:25:47;;;;;;;;;;;16.10;70.30;;;;;;5052501;28;19917;-72
2024/03/01 00:28:12;;;;;;;;;;;16.00;70.20;;;;;;5052449;28;20344;-72
2024/03/01 00:30:38;;;;;;;;;;;16.10;69.80;;;;;;5052393;28;19909;-72
2024/03/01 00:33:03;;;;;;;;;;;15.90;70.40;;;;;;5035165;28;20437;-76
2024/03/01 00:35:29;;;;;;;;;;;16.10;69.20;;;;;;5052406;28;19915;-76
2024/03/01 00:37:55;;;;;;;;;;;16.10;70.40;;;;;;5052352;28;19916;-76
2024/03/01 00:40:21;;;;;;;;;;;16.10;70.20;;;;;;5052315;28;19955;-76
2024/03/01 00:42:46;;;;;;;;;;;16.10;70.20;;;;;;5052298;28;19916;-76
2024/03/01 00:45:12;;;;;;;;;;;16.10;70.00;;;;;;5052328;28;20357;-76
2024/03/01 00:47:44;;;;;;;;;;;16.10;70.20;;;;;;5052303;28;19915;-76
2024/03/01 00:50:10;;;;;;;;;;;16.10;65.50;;;;;;5052569;28;19909;-76
2024/03/01 00:52:35;;;;;;;;;;;16.20;70.00;;;;;;5052125;28;20429;-76
2024/03/01 00:55:01;;;;;;;;;;;16.10;70.10;;;;;;5052116;28;19909;-76
2024/03/01 00:57:26;;;;;;;;;;;16.10;70.00;;;;;;5055467;28;19990;-76
2024/03/01 00:59:52;;;;;;;;;;;16.10;69.90;;;;;;5056159;28;19963;-76
2024/03/01 01:02:17;;;;;;;;;;;16.10;69.80;;;;;;5056243;28;20328;-76
2024/03/01 01:04:43;;;;;;;;;;;16.10;70.00;;;;;;5056242;28;19971;-76
2024/03/01 01:07:08;;;;;;;;;;;16.10;70.20;;;;;;5055932;28;19908;-75
2024/03/01 01:09:34;;;;;;;;;;;16.10;70.00;;;;;;5056363;28;19921;-76
2024/03/01 01:11:59;;;;;;;;;;;16.10;70.10;;;;;;5056090;28;20356;-76
2024/03/01 01:14:25;;;;;;;;;;;16.20;70.10;;;;;;5055997;28;19961;-76
2024/03/01 01:16:50;;;;;;;;;;;16.10;69.80;;;;;;5055884;28;19952;-76
2024/03/01 01:19:16;;;;;;;;;;;16.10;69.60;;;;;;5056348;28;19909;-76
2024/03/01 01:21:41;;;;;;;;;;;16.10;70.00;;;;;;5055913;28;19932;-76
2024/03/01 01:24:07;;;;;;;;;;;16.00;69.40;;;;;;5055749;28;19909;-76
2024/03/01 01:26:32;;;;;;;;;;;16.10;69.80;;;;;;5055748;28;19913;-76
2024/03/01 01:28:58;;;;;;;;;;;16.10;69.70;;;;;;5055843;28;19909;-76
2024/03/01 01:31:24;;;;;;;;;;;16.10;69.80;;;;;;5037986;28;20397;-76
2024/03/01 01:33:50;;;;;;;;;;;16.10;69.80;;;;;;5055888;28;20291;-76
2024/03/01 01:36:16;;;;;;;;;;;16.10;69.70;;;;;;5055746;28;19939;-76
2024/03/01 01:38:42;;;;;;;;;;;16.00;69.80;;;;;;5055719;28;19915;-76
2024/03/01 01:41:08;;;;;;;;;;;16.10;69.80;;;;;;5055693;28;19988;-76
2024/03/01 01:43:35;;;;;;;;;;;16.10;69.70;;;;;;5055414;28;19938;-76
2024/03/01 01:46:01;;;;;;;;;;;16.10;69.70;;;;;;5055332;28;19916;-76
2024/03/01 01:48:26;;;;;;;;;;;16.10;69.30;;;;;;5056183;28;20440;-76
2024/03/01 01:50:52;;;;;;;;;;;16.10;69.80;;;;;;5055195;28;19909;-76
2024/03/01 01:53:18;;;;;;;;;;;16.10;69.70;;;;;;5055351;28;20006;-76
2024/03/01 01:55:44;;;;;;;;;;;16.10;69.90;;;;;;5055172;28;20010;-76
2024/03/01 01:58:10;;;;;;;;;;;16.10;69.60;;;;;;5055410;28;19948;-76
2024/03/01 02:00:36;;;;;;;;;;;16.20;69.90;;;;;;5055256;28;19920;-76
2024/03/01 02:03:01;;;;;;;;;;;16.10;69.60;;;;;;5055056;28;19909;-76
2024/03/01 02:05:30;;;;;;;;;;;16.10;69.50;;;;;;5055044;28;19917;-76
2024/03/01 02:07:56;;;;;;;;;;;16.00;69.40;;;;;;5054160;28;19925;-75
2024/03/01 02:10:22;;;;;;;;;;;16.00;70.00;;;;;;5054932;28;20287;-76
2024/03/01 02:12:53;;;;;;;;;;;16.10;69.60;;;;;;5054906;28;19909;-76
2024/03/01 02:15:19;;;;;;;;;;;16.10;65.50;;;;;;5055077;28;19909;-76
2024/03/01 02:17:45;;;;;;;;;;;16.10;69.60;;;;;;5055240;28;19909;-73
2024/03/01 02:20:11;;;;;;;;;;;16.00;69.80;;;;;;5054713;28;19912;-72
2024/03/01 02:22:38;;;;;;;;;;;15.90;69.50;;;;;;5054637;28;19959;-72
2024/03/01 02:25:05;;;;;;;;;;;16.00;69.70;;;;;;5054549;28;19947;-72
2024/03/01 02:27:31;;;;;;;;;;;16.00;69.60;;;;;;5054625;28;20310;-72
2024/03/01 02:29:56;;;;;;;;;;;16.10;69.60;;;;;;5054633;28;19908;-72
2024/03/01 02:32:22;;;;;;;;;;;16.00;69.80;;;;;;5054580;28;19909;-72
2024/03/01 02:34:47;;;;;;;;;;;16.10;70.10;;;;;;5054502;28;19909;-72
2024/03/01 02:37:13;;;;;;;;;;;16.10;69.80;;;;;;5054344;28;20046;-72
2024/03/01 02:39:38;;;;;;;;;;;16.00;69.70;;;;;;5054394;28;20050;-72
2024/03/01 02:42:04;;;;;;;;;;;16.10;69.90;;;;;;5054308;28;19935;-72
2024/03/01 02:44:29;;;;;;;;;;;16.00;69.20;;;;;;5054225;28;19917;-73
2024/03/01 02:46:55;;;;;;;;;;;16.00;69.60;;;;;;5054763;28;19916;-72
2024/03/01 02:49:20;;;;;;;;;;;16.00;69.80;;;;;;5054197;28;19908;-72
2024/03/01 02:51:46;;;;;;;;;;;16.10;69.80;;;;;;5054199;28;20320;-72
2024/03/01 02:54:11;;;;;;;;;;;16.00;69.90;;;;;;5054050;28;19919;-73
2024/03/01 02:56:37;;;;;;;;;;;16.30;70.00;;;;;;5054197;28;19909;-72
2024/03/01 02:59:02;;;;;;;;;;;16.00;69.70;;;;;;5054047;28;19984;-72
2024/03/01 03:01:30;;;;;;;;;;;16.10;69.50;;;;;;5053828;28;19909;-72
2024/03/01 03:03:56;;;;;;;;;;;16.00;69.70;;;;;;5053857;28;19915;-72
2024/03/01 03:06:21;;;;;;;;;;;16.00;69.80;;;;;;5035917;28;19913;-72
2024/03/01 03:08:47;;;;;;;;;;;16.00;69.50;;;;;;5053676;28;20008;-72
2024/03/01 03:11:13;;;;;;;;;;;16.00;69.80;;;;;;5053710;28;19908;-72
2024/03/01 03:13:38;;;;;;;;;;;16.00;69.50;;;;;;5054256;28;19909;-73
2024/03/01 03:16:04;;;;;;;;;;;16.00;69.90;;;;;;5053606;28;19920;-73
2024/03/01 03:18:30;;;;;;;;;;;15.90;68.20;;;;;;5053528;28;19909;-72
2024/03/01 03:20:55;;;;;;;;;;;15.90;69.70;;;;;;5052494;28;19908;-73
2024/03/01 03:23:21;;;;;;;;;;;15.90;69.40;;;;;;5053417;28;19935;-73
2024/03/01 03:25:46;;;;;;;;;;;16.00;69.50;;;;;;5053523;28;19924;-73
2024/03/01 03:28:14;;;;;;;;;;;16.00;69.50;;;;;;5053546;28;19909;-72
2024/03/01 03:30:39;;;;;;;;;;;15.90;69.60;;;;;;5053382;28;19909;-72
2024/03/01 03:33:05;;;;;;;;;;;15.90;69.50;;;;;;5053353;28;20401;-73
2024/03/01 03:35:30;;;;;;;;;;;15.90;69.70;;;;;;5053221;28;19954;-72
2024/03/01 03:37:56;;;;;;;;;;;15.90;70.00;;;;;;5053253;28;19909;-72
2024/03/01 03:40:29;;;;;;;;;;;15.90;64.90;;;;;;5090192;27;19930;-72
2024/03/01 03:42:55;;;;;;;;;;;16.00;69.40;;;;;;5090633;28;19912;-76
2024/03/01 03:45:20;;;;;;;;;;;16.00;70.00;;;;;;5089996;28;19913;-76
2024/03/01 03:47:46;;;;;;;;;;;15.90;69.70;;;;;;5090018;28;19953;-76
2024/03/01 03:50:11;;;;;;;;;;;16.00;70.00;;;;;;5089875;28;19916;-76
2024/03/01 03:52:37;;;;;;;;;;;16.00;69.90;;;;;;5090176;28;19954;-76
2024/03/01 03:55:06;;;;;;;;;;;16.10;70.00;;;;;;5090187;28;19959;-77
2024/03/01 03:57:35;;;;;;;;;;;15.90;69.20;;;;;;5090070;28;19954;-76
2024/03/01 04:00:01;;;;;;;;;;;15.90;69.80;;;;;;5089970;28;19974;-76
2024/03/01 04:02:26;;;;;;;;;;;16.00;69.30;;;;;;5089740;28;19915;-76
2024/03/01 04:04:52;;;;;;;;;;;15.90;69.80;;;;;;5089688;28;19999;-76
2024/03/01 04:07:17;;;;;;;;;;;15.90;69.80;;;;;;5089572;28;19912;-76
2024/03/01 04:09:43;;;;;;;;;;;15.90;69.90;;;;;;5089575;28;19954;-76
2024/03/01 04:12:09;;;;;;;;;;;16.00;70.00;;;;;;5090064;28;19909;-76
2024/03/01 04:14:34;;;;;;;;;;;16.30;70.00;;;;;;5089498;28;19946;-76
2024/03/01 04:17:00;;;;;;;;;;;15.90;69.60;;;;;;5089403;28;19912;-76
2024/03/01 04:19:26;;;;;;;;;;;15.90;69.70;;;;;;5089330;28;19994;-76
2024/03/01 04:21:52;;;;;;;;;;;15.90;69.60;;;;;;5089474;28;20346;-76
2024/03/01 04:24:18;;;;;;;;;;;15.90;69.30;;;;;;5089273;28;20011;-76
2024/03/01 04:26:43;;;;;;;;;;;15.90;69.70;;;;;;5089176;28;19963;-76
2024/03/01 04:29:09;;;;;;;;;;;15.90;69.30;;;;;;5089278;28;19909;-76
2024/03/01 04:31:35;;;;;;;;;;;15.90;69.40;;;;;;5089075;28;19908;-76
2024/03/01 04:34:04;;;;;;;;;;;15.90;69.30;;;;;;5089110;28;20340;-76
2024/03/01 04:36:30;;;;;;;;;;;15.90;69.50;;;;;;5089073;28;19909;-76
2024/03/01 04:38:55;;;;;;;;;;;15.90;69.40;;;;;;5096906;28;19920;-77
2024/03/01 04:41:21;;;;;;;;;;;15.90;69.40;;;;;;5109283;28;19938;-76
2024/03/01 04:43:46;;;;;;;;;;;15.90;69.40;;;;;;5109290;28;19909;-76
2024/03/01 04:46:12;;;;;;;;;;;15.90;69.40;;;;;;5109272;28;19915;-76
2024/03/01 04:48:38;;;;;;;;;;;15.90;69.20;;;;;;5109178;28;20028;-76
2024/03/01 04:51:12;;;;;;;;;;;16.20;69.60;;;;;;5100061;28;19977;-76
2024/03/01 04:53:38;;;;;;;;;;;15.80;64.50;;;;;;5095556;28;20389;-76
2024/03/01 04:56:04;;;;;;;;;;;15.80;69.20;;;;;;5095515;28;19955;-76
2024/03/01 04:58:30;;;;;;;;;;;15.90;68.20;;;;;;5095340;28;19920;-76
2024/03/01 05:00:55;;;;;;;;;;;15.80;69.00;;;;;;5095548;28;19915;-76
2024/03/01 05:03:21;;;;;;;;;;;15.90;68.80;;;;;;5095249;28;19954;-76
2024/03/01 05:05:46;;;;;;;;;;;15.90;69.20;;;;;;5095262;28;19995;-77
2024/03/01 05:08:12;;;;;;;;;;;15.90;69.00;;;;;;5095786;28;19913;-77
2024/03/01 05:10:37;;;;;;;;;;;15.80;68.80;;;;;;5095171;28;20371;-76
2024/03/01 05:13:03;;;;;;;;;;;15.80;68.80;;;;;;5095099;28;19908;-77
2024/03/01 05:15:28;;;;;;;;;;;15.90;69.00;;;;;;5095063;28;20323;-76
2024/03/01 05:17:53;;;;;;;;;;;15.80;69.10;;;;;;5095119;28;19934;-76
2024/03/01 05:20:19;;;;;;;;;;;15.90;69.20;;;;;;5095055;28;19963;-76
2024/03/01 05:22:44;;;;;;;;;;;16.20;69.20;;;;;;5094965;28;19909;-76
2024/03/01 05:25:16;;;;;;;;;;;15.80;69.20;;;;;;5094938;28;19935;-76
2024/03/01 05:27:43;;;;;;;;;;;15.80;67.90;;;;;;5094870;28;19958;-76
2024/03/01 05:30:10;;;;;;;;;;;15.90;69.00;;;;;;5095002;28;19908;-76
2024/03/01 05:32:38;;;;;;;;;;;15.80;67.70;;;;;;5094700;28;19908;-76
2024/03/01 05:35:07;;;;;;;;;;;15.80;69.30;;;;;;5094990;28;20325;-76
2024/03/01 05:37:33;;;;;;;;;;;15.90;67.60;;;;;;5095407;28;19915;-76
2024/03/01 05:39:59;;;;;;;;;;;15.80;68.70;;;;;;5094321;28;19920;-76
2024/03/01 05:42:24;;;;;;;;;;;15.80;69.20;;;;;;5094595;28;20362;-76
2024/03/01 05:44:49;;;;;;;;;;;15.80;69.10;;;;;;5094523;28;19908;-76
2024/03/01 05:47:15;;;;;;;;;;;15.80;69.30;;;;;;5094474;28;20294;-76
2024/03/01 05:49:41;;;;;;;;;;;15.70;69.10;;;;;;5094412;28;19912;-72
2024/03/01 05:52:06;;;;;;;;;;;15.70;69.10;;;;;;5094323;28;20322;-72
2024/03/01 05:54:32;;;;;;;;;;;15.80;69.30;;;;;;5094256;28;19908;-72
2024/03/01 05:56:58;;;;;;;;;;;15.70;69.40;;;;;;5094257;28;19912;-72
2024/03/01 05:59:23;;;;;;;;;;;15.70;68.90;;;;;;5094275;28;19970;-72
2024/03/01 06:01:49;;;;;;;;;;;15.70;68.70;;;;;;5093285;28;19908;-72
2024/03/01 06:04:14;;;;;;;;;;;15.70;69.10;;;;;;5094453;28;19915;-72
2024/03/01 06:06:40;;;;;;;;;;;15.70;69.00;;;;;;5094340;28;19916;-72
2024/03/01 06:09:05;;;;;;;;;;;15.70;69.20;;;;;;5094035;28;19930;-72
2024/03/01 06:11:31;;;;;;;;;;;15.70;69.00;;;;;;5093965;28;19908;-72
2024/03/01 06:13:56;;;;;;;;;;;15.60;68.80;;;;;;5094180;28;19908;-72
2024/03/01 06:16:22;;;;;;;;;;;15.70;68.30;;;;;;5093972;28;19912;-72
2024/03/01 06:18:47;;;;;;;;;;;15.70;69.00;;;;;;5093726;28;19923;-72
2024/03/01 06:21:19;;;;;;;;;;;15.70;68.70;;;;;;5093755;28;19909;-72
2024/03/01 06:23:45;;;;;;;;;;;15.70;63.90;;;;;;5093703;28;20291;-72
2024/03/01 06:26:10;;;;;;;;;;;15.70;68.70;;;;;;5093700;28;19919;-73
2024/03/01 06:28:36;;;;;;;;;;;15.70;69.30;;;;;;5093612;28;19954;-72
2024/03/01 06:31:01;;;;;;;;;;;15.70;68.50;;;;;;5093550;28;19916;-72
2024/03/01 06:33:27;;;;;;;;;;;15.60;68.60;;;;;;5094056;28;19969;-72
2024/03/01 06:35:52;;;;;;;;;;;15.60;68.40;;;;;;5093308;28;19914;-72
2024/03/01 06:38:18;;;;;;;;;;;15.60;68.00;;;;;;5093105;28;19995;-72
2024/03/01 06:40:43;;;;;;;;;;;15.60;68.40;;;;;;5093341;28;19908;-72
2024/03/01 06:43:09;;;;;;;;;;;15.50;68.30;;;;;;5093271;28;19908;-72
2024/03/01 06:45:34;;;;;;;;;;;15.60;68.20;;;;;;5093339;28;19915;-72
2024/03/01 06:48:00;;;;;;;;;;;15.60;68.40;;;;;;5093269;28;19935;-72
2024/03/01 06:50:26;;;;;;;;;;;15.50;68.10;;;;;;5093195;28;19947;-71
2024/03/01 06:52:52;;;;;;;;;;;15.50;68.10;;;;;;5093093;28;20271;-71
2024/03/01 06:55:17;;;;;;;;;;;15.60;68.30;;;;;;5093090;28;19933;-71
2024/03/01 06:57:43;;;;;;;;;;;15.50;67.50;;;;;;5093267;28;19908;-70
2024/03/01 07:00:09;;;;;;;;;;;15.50;68.00;;;;;;5093046;28;19916;-71
2024/03/01 07:02:34;;;;;;;;;;;15.50;67.60;;;;;;5093436;28;19912;-72
2024/03/01 07:05:00;;;;;;;;;;;15.50;68.40;;;;;;5092913;28;19912;-72
2024/03/01 07:07:25;;;;;;;;;;;15.50;68.20;;;;;;5092917;28;20383;-72
2024/03/01 07:09:51;;;;;;;;;;;15.50;68.10;;;;;;5092904;28;19919;-72
2024/03/01 07:12:17;;;;;;;;;;;15.40;68.30;;;;;;5092913;28;19908;-72
2024/03/01 07:14:43;;;;;;;;;;;15.50;68.30;;;;;;5092685;28;19912;-72
2024/03/01 07:17:09;;;;;;;;;;;15.50;68.30;;;;;;5092795;28;19927;-72
2024/03/01 07:19:34;;;;;;;;;;;15.40;68.40;;;;;;5092761;28;19977;-72
2024/03/01 07:22:00;;;;;;;;;;;15.50;68.40;;;;;;5092724;28;20302;-73
2024/03/01 07:24:25;;;;;;;;;;;15.50;68.30;;;;;;5092716;28;19908;-73
2024/03/01 07:26:51;;;;;;;;;;;15.50;68.50;;;;;;5092719;28;19912;-72
2024/03/01 07:29:16;;;;;;;;;;;15.50;68.30;;;;;;5092390;28;19908;-72
2024/03/01 07:31:42;;;;;;;;;;;15.60;68.30;;;;;;5093087;28;19950;-73
2024/03/01 07:34:07;;;;;;;;;;;15.50;68.40;;;;;;5092613;28;19961;-72
2024/03/01 07:36:33;;;;;;;;;;;15.50;68.30;;;;;;5092837;28;19915;-72
2024/03/01 07:38:59;;;;;;;;;;;15.50;68.40;;;;;;5092315;28;19927;-73
2024/03/01 07:41:25;;;;;;;;;;;15.50;68.50;;;;;;5092394;28;19997;-73
2024/03/01 07:43:52;;;;;;;;;;;15.50;68.50;;;;;;5092310;28;19916;-73
2024/03/01 07:46:17;;;;;;;;;;;15.50;68.40;;;;;;5092315;28;19912;-73
2024/03/01 07:48:44;;;;;;;;;;;15.40;68.40;;;;;;5092493;28;19908;-75
2024/03/01 07:51:10;;;;;;;;;;;15.50;68.40;;;;;;5091117;28;19908;-72
2024/03/01 07:53:35;;;;;;;;;;;15.60;68.70;;;;;;5091137;28;20281;-74
2024/03/01 07:56:01;;;;;;;;;;;15.60;68.30;;;;;;5092435;28;19986;-72
2024/03/01 07:58:27;;;;;;;;;;;15.50;68.30;;;;;;5092811;28;20294;-72
2024/03/01 08:00:52;;;;;;;;;;;15.50;68.50;;;;;;5092249;28;19916;-73
2024/03/01 08:03:18;;;;;;;;;;;15.50;67.90;;;;;;5090814;28;19915;-71
2024/03/01 08:05:44;;;;;;;;;;;15.90;68.70;;;;;;5090738;28;19908;-72
2024/03/01 08:08:10;;;;;;;;;;;15.40;69.10;;;;;;5091413;28;19998;-71
2024/03/01 08:10:39;;;;;;;;;;;15.50;68.50;;;;;;5092361;28;19995;-71
2024/03/01 08:13:04;;;;;;;;;;;15.60;68.60;;;;;;5092308;28;20275;-71
2024/03/01 08:15:30;;;;;;;;;;;15.60;68.50;;;;;;5092059;28;20097;-71
2024/03/01 08:17:56;;;;;;;;;;;15.50;68.10;;;;;;5092202;28;19915;-71
2024/03/01 08:20:41;;;;;;;;;;;15.60;68.40;;;;;;5091841;28;20007;-71
2024/03/01 08:23:08;;;;;;;;;;;15.50;68.50;;;;;;5080210;28;20366;-71
2024/03/01 08:25:33;;;;;;;;;;;15.50;68.30;;;;;;5090926;28;19999;-71
2024/03/01 08:27:59;;;;;;;;;;;15.50;68.40;;;;;;5094433;28;20029;-71
2024/03/01 08:30:37;;;;;;;;;;;15.60;68.30;;;;;;5095326;28;19922;-71
2024/03/01 08:33:02;;;;;;;;;;;15.60;63.80;;;;;;5093695;28;19916;-71
2024/03/01 08:35:29;;;;;;;;;;;15.60;68.20;;;;;;5095500;28;19908;-71
2024/03/01 08:37:55;;;;;;;;;;;15.60;68.50;;;;;;5094321;28;19908;-71
2024/03/01 08:40:39;;;;;;;;;;;15.60;68.40;;;;;;5095239;28;20379;-71
2024/03/01 08:43:05;;;;;;;;;;;15.50;63.70;;;;;;5095550;28;19954;-71
2024/03/01 08:45:43;;;;;;;;;;;15.60;68.40;;;;;;5095497;28;19912;-71
2024/03/01 08:48:15;;;;;;;;;;;15.60;64.00;;;;;;5095638;28;20333;-71
2024/03/01 08:50:50;;;;;;;;;;;15.70;63.80;;;;;;5095337;28;19912;-71
2024/03/01 08:53:34;;;;;;;;;;;15.60;68.50;;;;;;5095350;28;19989;-71
2024/03/01 08:56:00;;;;;;;;;;;15.60;64.00;;;;;;5095569;28;19934;-71
2024/03/01 08:58:26;;;;;;;;;;;15.60;68.30;;;;;;5095046;28;19908;-71
2024/03/01 09:00:55;;;;;;;;;;;15.70;68.40;;;;;;5093877;28;19914;-71
2024/03/01 09:03:24;;;;;;;;;;;15.70;67.80;;;;;;5095530;28;19912;-72
2024/03/01 09:05:53;;;;;;;;;;;15.60;68.60;;;;;;5095155;28;19914;-72
2024/03/01 09:08:22;;;;;;;;;;;15.70;68.70;;;;;;5095084;28;20389;-72
2024/03/01 09:10:50;;;;;;;;;;;15.70;68.50;;;;;;5095312;28;19982;-72
2024/03/01 09:13:16;;;;;;;;;;;15.70;69.30;;;;;;5095006;28;20003;-72
2024/03/01 09:15:43;;;;;;;;;;;15.70;68.70;;;;;;5095059;28;20007;-72
2024/03/01 09:18:32;;;;;;;;;;;15.70;68.70;;;;;;5094908;28;19916;-79
2024/03/01 09:20:58;;;;;;;;;;;15.80;64.00;;;;;;5089718;28;19924;-77
2024/03/01 09:23:23;;;;;;;;;;;15.70;69.20;;;;;;5094743;28;19908;-78
2024/03/01 09:25:51;;;;;;;;;;;15.80;68.70;;;;;;5094753;28;20386;-78
2024/03/01 09:28:20;;;;;;;;;;;15.70;64.40;;;;;;5094589;28;19937;-78
2024/03/01 09:30:46;;;;;;;;;;;15.80;68.60;;;;;;5094853;28;19908;-78
2024/03/01 09:33:12;;;;;;;;;;;15.80;68.70;;;;;;5095132;28;20400;-78
2024/03/01 09:35:38;;;;;;;;;;;15.90;68.80;;;;;;5094485;28;19908;-78
2024/03/01 09:38:04;;;;;;;;;;;15.80;68.80;;;;;;5094146;28;19916;-77
2024/03/01 09:40:33;;;;;;;;;;;15.80;68.80;;;;;;5094165;28;19916;-78
2024/03/01 09:43:19;;;;;;;;;;;15.80;64.00;;;;;;5094281;28;20293;-78
2024/03/01 09:46:03;;;;;;;;;;;15.90;68.60;;;;;;5094289;28;20398;-78
2024/03/01 09:48:29;;;;;;;;;;;15.70;63.60;;;;;;5094101;28;19935;-78
2024/03/01 09:50:57;;;;;;;;;;;15.80;68.30;;;;;;5094046;28;19929;-78
2024/03/01 09:53:29;;;;;;;;;;;15.90;63.80;;;;;;5094010;28;19908;-78
2024/03/01 09:56:14;;;;;;;;;;;15.90;64.10;;;;;;5093971;28;20353;-77
2024/03/01 09:58:39;;;;;;;;;;;16.00;63.80;;;;;;5094059;28;19938;-77
2024/03/01 10:01:15;;;;;;;;;;;16.00;68.20;;;;;;5094306;28;20349;-78
2024/03/01 10:03:46;;;;;;;;;;;16.00;63.00;;;;;;5093711;28;19951;-78
2024/03/01 10:06:30;;;;;;;;;;;16.00;68.60;;;;;;5093747;28;19909;-79
2024/03/01 10:09:28;;;;;;;;;;;16.00;63.60;;;;;;5093722;28;19915;-79
2024/03/01 10:11:57;;;;;;;;;;;16.10;63.30;;;;;;5059491;28;19909;-78
2024/03/01 10:14:36;;;;;;;;;;;16.20;66.90;;;;;;5093877;28;20007;-78
2024/03/01 10:17:31;;;;;;;;;;;16.20;62.60;;;;;;5093654;28;19916;-79
2024/03/01 10:20:16;;;;;;;;;;;16.30;62.50;;;;;;5079967;28;20439;-78
2024/03/01 10:22:59;;;;;;;;;;;16.60;62.50;;;;;;5093729;28;20397;-78
2024/03/01 10:25:40;;;;;;;;;;;16.40;62.20;;;;;;5093402;28;19999;-78
2024/03/01 10:28:16;;;;;;;;;;;16.50;62.10;;;;;;5093303;28;20264;-78
2024/03/01 10:30:59;;;;;;;;;;;16.60;65.80;;;;;;5093990;28;19908;-78
2024/03/01 10:33:41;;;;;;;;;;;16.70;62.10;;;;;;5093627;28;19966;-79
2024/03/01 10:36:25;;;;;;;;;;;16.70;61.70;;;;;;5093302;28;20100;-78
2024/03/01 10:39:09;;;;;;;;;;;16.80;61.40;;;;;;5092708;28;20397;-78
2024/03/01 10:41:47;;;;;;;;;;;16.90;60.90;;;;;;5093099;28;19908;-78
2024/03/01 10:44:28;;;;;;;;;;;17.00;64.30;;;;;;5092957;28;19974;-78
2024/03/01 10:47:13;;;;;;;;;;;17.00;61.10;;;;;;5092944;28;19927;-78
2024/03/01 10:49:42;;;;;;;;;;;17.00;61.00;;;;;;5092526;28;20551;-78
2024/03/01 10:52:10;;;;;;;;;;;17.40;65.60;;;;;;5092746;28;19962;-78
2024/03/01 10:54:35;;;;;;;;;;;17.20;65.40;;;;;;5092955;28;20278;-78
2024/03/01 10:57:03;;;;;;;;;;;17.30;65.00;;;;;;5092837;28;19912;-78
2024/03/01 10:59:43;;;;;;;;;;;17.40;64.90;;;;;;5093254;28;20038;-78
2024/03/01 11:02:17;;;;;;;;;;;17.40;64.30;;;;;;5092729;28;20358;-79
2024/03/01 11:04:42;;;;;;;;;;;17.50;60.30;;;;;;5092757;28;19915;-78
2024/03/01 11:07:18;;;;;;;;;;;17.50;64.40;;;;;;5092590;28;19908;-78
2024/03/01 11:09:58;;;;;;;;;;;17.50;60.10;;;;;;5092704;28;20291;-78
2024/03/01 11:12:24;;;;;;;;;;;17.70;59.70;;;;;;5091536;28;19963;-72
2024/03/01 11:15:03;;;;;;;;;;;17.70;63.90;;;;;;5092712;28;19942;-72
2024/03/01 11:17:28;;;;;;;;;;;17.80;63.80;;;;;;5092706;28;20282;-72
2024/03/01 11:19:58;;;;;;;;;;;17.80;63.60;;;;;;5092534;28;19916;-80
2024/03/01 11:22:24;;;;;;;;;;;17.80;63.80;;;;;;5091354;28;19915;-72
2024/03/01 11:25:11;;;;;;;;;;;17.80;63.80;;;;;;5092611;28;19915;-74
2024/03/01 11:27:46;;;;;;;;;;;17.80;59.40;;;;;;5092687;28;19912;-73
2024/03/01 11:30:13;;;;;;;;;;;17.80;59.60;;;;;;5092590;28;19908;-74
2024/03/01 11:32:42;;;;;;;;;;;17.80;64.10;;;;;;5092633;28;19970;-73
2024/03/01 11:35:15;;;;;;;;;;;18.10;64.40;;;;;;5092650;28;20007;-72
2024/03/01 11:37:57;;;;;;;;;;;17.60;60.00;;;;;;5092588;28;19908;-72
2024/03/01 11:40:43;;;;;;;;;;;17.70;60.10;;;;;;5092287;28;19952;-73
2024/03/01 11:43:17;;;;;;;;;;;17.60;60.10;;;;;;5092618;28;19908;-73
2024/03/01 11:45:58;;;;;;;;;;;17.60;60.20;;;;;;5092911;28;20290;-73
2024/03/01 11:48:48;;;;;;;;;;;17.70;60.40;;;;;;5092312;28;19908;-73
2024/03/01 11:51:32;;;;;;;;;;;17.50;60.40;;;;;;5092307;28;19915;-78
2024/03/01 11:53:58;;;;;;;;;;;17.70;60.50;;;;;;5092280;28;19908;-71
2024/03/01 11:56:39;;;;;;;;;;;17.50;65.20;;;;;;5092448;28;19915;-71
2024/03/01 11:59:06;;;;;;;;;;;17.50;60.70;;;;;;5092204;28;19916;-71
2024/03/01 12:01:46;;;;;;;;;;;17.40;64.70;;;;;;5095266;28;20293;-70
2024/03/01 12:04:15;;;;;;;;;;;17.50;60.70;;;;;;5096286;28;19908;-71
2024/03/01 12:06:50;;;;;;;;;;;17.30;60.70;;;;;;5096384;28;19912;-71
2024/03/01 12:09:24;;;;;;;;;;;17.30;60.80;;;;;;5096548;28;20321;-71
2024/03/01 12:11:56;;;;;;;;;;;17.40;60.70;;;;;;5096384;28;19953;-71
2024/03/01 12:14:26;;;;;;;;;;;17.20;65.60;;;;;;5096724;28;19912;-70
2024/03/01 12:16:56;;;;;;;;;;;16.80;65.40;;;;;;5096475;28;20007;-70
2024/03/01 12:19:35;;;;;;;;;;;17.10;65.70;;;;;;5096377;28;20014;-71
2024/03/01 12:22:00;;;;;;;;;;;17.10;60.60;;;;;;5096114;28;19938;-71
2024/03/01 12:24:30;;;;;;;;;;;17.00;64.90;;;;;;5096080;28;19912;-71
2024/03/01 12:27:04;;;;;;;;;;;17.10;65.50;;;;;;5095976;28;19916;-71
2024/03/01 12:29:41;;;;;;;;;;;17.00;61.00;;;;;;5095994;28;20328;-71
2024/03/01 12:32:17;;;;;;;;;;;17.10;61.30;;;;;;5095957;28;19955;-71
2024/03/01 12:35:01;;;;;;;;;;;16.90;60.70;;;;;;5095781;28;19953;-71
2024/03/01 12:37:30;;;;;;;;;;;17.00;60.80;;;;;;5095621;28;20330;-71
2024/03/01 12:40:21;;;;;;;;;;;17.00;60.80;;;;;;5095408;28;20290;-71
2024/03/01 12:43:07;;;;;;;;;;;17.20;61.30;;;;;;5092989;28;20310;-71
2024/03/01 12:45:41;;;;;;;;;;;17.00;60.60;;;;;;5095582;28;19991;-71
2024/03/01 12:48:26;;;;;;;;;;;17.00;60.80;;;;;;5095566;28;19915;-71
2024/03/01 12:50:57;;;;;;;;;;;16.90;60.80;;;;;;5095402;28;19908;-71
2024/03/01 12:53:43;;;;;;;;;;;16.90;60.40;;;;;;5095425;28;19916;-71
2024/03/01 12:56:12;;;;;;;;;;;16.90;65.20;;;;;;5084410;28;19908;-71
2024/03/01 12:58:52;;;;;;;;;;;16.90;60.40;;;;;;5095247;28;19998;-71
2024/03/01 13:01:27;;;;;;;;;;;16.90;64.10;;;;;;5095224;28;20286;-71
2024/03/01 13:04:11;;;;;;;;;;;17.00;60.10;;;;;;5095316;28;19980;-71
2024/03/01 13:06:36;;;;;;;;;;;16.90;60.00;;;;;;5093877;28;19916;-71
2024/03/01 13:09:05;;;;;;;;;;;16.90;64.60;;;;;;5095157;28;20302;-71
2024/03/01 13:11:31;;;;;;;;;;;16.80;64.80;;;;;;5095128;28;19912;-71
2024/03/01 13:14:13;;;;;;;;;;;16.80;65.00;;;;;;5095006;28;19962;-71
2024/03/01 13:16:39;;;;;;;;;;;16.80;60.20;;;;;;5094989;28;19915;-71
2024/03/01 13:19:19;;;;;;;;;;;17.10;65.60;;;;;;5094952;28;20374;-71
2024/03/01 13:21:52;;;;;;;;;;;16.80;60.00;;;;;;5093749;28;20519;-71
2024/03/01 13:24:17;;;;;;;;;;;16.90;60.20;;;;;;5094936;28;20382;-71
2024/03/01 13:26:46;;;;;;;;;;;16.80;64.60;;;;;;5094814;28;19915;-71
2024/03/01 13:29:16;;;;;;;;;;;16.80;64.50;;;;;;5094844;28;19991;-72
2024/03/01 13:32:00;;;;;;;;;;;16.80;60.00;;;;;;5094632;28;20378;-71
2024/03/01 13:34:26;;;;;;;;;;;16.80;60.10;;;;;;5094641;28;20294;-72
2024/03/01 13:37:14;;;;;;;;;;;16.80;64.50;;;;;;5094805;28;19915;-71
2024/03/01 13:39:48;;;;;;;;;;;16.80;60.30;;;;;;5094852;28;20340;-72
2024/03/01 13:42:26;;;;;;;;;;;16.90;60.10;;;;;;5094530;28;19908;-71
2024/03/01 13:44:54;;;;;;;;;;;16.70;59.40;;;;;;5094811;28;19962;-72
2024/03/01 13:47:21;;;;;;;;;;;16.80;64.30;;;;;;5094705;28;19909;-71
2024/03/01 13:50:06;;;;;;;;;;;16.50;63.80;;;;;;5094391;28;19940;-72
2024/03/01 13:52:39;;;;;;;;;;;16.70;59.70;;;;;;5093043;28;19947;-71
2024/03/01 13:55:06;;;;;;;;;;;16.70;59.60;;;;;;5094233;28;19951;-72
2024/03/01 13:57:31;;;;;;;;;;;16.70;63.50;;;;;;5094412;28;19965;-71
2024/03/01 13:59:57;;;;;;;;;;;16.70;63.80;;;;;;5094111;28;19916;-72
2024/03/01 14:02:25;;;;;;;;;;;16.80;63.60;;;;;;5093954;28;19908;-72
2024/03/01 14:05:01;;;;;;;;;;;16.70;64.40;;;;;;5093982;28;19912;-72
2024/03/01 14:07:26;;;;;;;;;;;17.00;60.00;;;;;;5094524;28;19908;-72
2024/03/01 14:09:52;;;;;;;;;;;16.60;64.00;;;;;;5093954;28;19953;-72
2024/03/01 14:12:19;;;;;;;;;;;16.60;63.90;;;;;;5093894;28;19934;-72
2024/03/01 14:14:47;;;;;;;;;;;16.70;64.20;;;;;;5093757;28;19908;-72
2024/03/01 14:17:13;;;;;;;;;;;16.70;59.60;;;;;;5093865;28;19915;-72
2024/03/01 14:19:38;;;;;;;;;;;16.70;64.10;;;;;;5093720;28;19916;-72
2024/03/01 14:22:04;;;;;;;;;;;16.60;64.50;;;;;;5093651;28;19920;-72
2024/03/01 14:24:33;;;;;;;;;;;16.70;63.70;;;;;;5092834;28;19991;-72
2024/03/01 14:26:59;;;;;;;;;;;16.60;64.10;;;;;;5093503;28;19908;-72